sensor_id;sensor_type;location;lat;lon;timestamp;temperature;humidity
21662;DHT22;10992;48.170;8.596;2024-02-16T00:00:59;8.70;99.90
21662;DHT22;10992;48.170;8.596;2024-02-16T00:03:27;8.70;99.90
21662;DHT22;10992;48.170;8.596;2024-02-16T00:05:54;8.70;99.90
21662;DHT22;10992;48.170;8.596;2024-02-16T00:08:22;8.70;99.90
21662;DHT22;10992;48.170;8.596;2024-02-16T00:10:48;8.60;99.90
21662;DHT22;10992;48.170;8.596;2024-02-16T00:13:16;8.60;99.90
21662;DHT22;10992;48.170;8.596;2024-02-16T00:15:42;8.60;99.90
21662;DHT22;10992;48.170;8.596;2024-02-16T00:18:10;8.60;99.90
21662;DHT22;10992;48.170;8.596;2024-02-16T00:20:37;8.50;99.90
21662;DHT22;10992;48.170;8.596;2024-02-16T00:23:04;8.40;99.90
21662;DHT22;10992;48.170;8.596;2024-02-16T00:25:31;8.40;99.90
21662;DHT22;10992;48.170;8.596;2024-02-16T00:28:01;8.40;99.90
21662;DHT22;10992;48.170;8.596;2024-02-16T00:30:29;8.40;99.90
21662;DHT22;10992;48.170;8.596;2024-02-16T00:32:57;8.40;99.90
21662;DHT22;10992;48.170;8.596;2024-02-16T00:35:24;8.30;99.90
21662;DHT22;10992;48.170;8.596;2024-02-16T00:37:51;8.30;99.90
21662;DHT22;10992;48.170;8.596;2024-02-16T00:40:18;8.30;99.90
21662;DHT22;10992;48.170;8.596;2024-02-16T00:42:45;8.20;99.90
21662;DHT22;10992;48.170;8.596;2024-02-16T00:45:12;8.20;99.90
21662;DHT22;10992;48.170;8.596;2024-02-16T00:47:39;8.10;99.90
21662;DHT22;10992;48.170;8.596;2024-02-16T00:50:06;8.10;99.90
21662;DHT22;10992;48.170;8.596;2024-02-16T00:52:35;8.10;99.90
21662;DHT22;10992;48.170;8.596;2024-02-16T00:55:04;8.10;99.90
21662;DHT22;10992;48.170;8.596;2024-02-16T00:57:31;8.10;99.90
21662;DHT22;10992;48.170;8.596;2024-02-16T00:59:57;8.10;99.90
21662;DHT22;10992;48.170;8.596;2024-02-16T01:02:24;8.20;99.90
21662;DHT22;10992;48.170;8.596;2024-02-16T01:04:55;8.10;99.90
21662;DHT22;10992;48.170;8.596;2024-02-16T01:07:28;8.20;99.90
21662;DHT22;10992;48.170;8.596;2024-02-16T01:09:55;8.20;99.90
21662;DHT22;10992;48.170;8.596;2024-02-16T01:12:23;8.30;99.90
21662;DHT22;10992;48.170;8.596;2024-02-16T01:14:50;8.30;99.90
21662;DHT22;10992;48.170;8.596;2024-02-16T01:17:16;8.30;99.90
21662;DHT22;10992;48.170;8.596;2024-02-16T01:19:43;8.40;99.90
21662;DHT22;10992;48.170;8.596;2024-02-16T01:22:10;8.40;99.90
21662;DHT22;10992;48.170;8.596;2024-02-16T01:24:37;8.40;99.90
21662;DHT22;10992;48.170;8.596;2024-02-16T01:27:04;8.30;99.90
21662;DHT22;10992;48.170;8.596;2024-02-16T01:29:31;8.30;99.90
21662;DHT22;10992;48.170;8.596;2024-02-16T01:31:59;8.20;99.90
21662;DHT22;10992;48.170;8.596;2024-02-16T01:34:25;8.20;99.90
21662;DHT22;10992;48.170;8.596;2024-02-16T01:36:53;8.20;99.90
21662;DHT22;10992;48.170;8.596;2024-02-16T01:39:19;8.20;99.90
21662;DHT22;10992;48.170;8.596;2024-02-16T01:41:47;8.20;99.90
21662;DHT22;10992;48.170;8.596;2024-02-16T01:44:13;8.20;99.90
21662;DHT22;10992;48.170;8.596;2024-02-16T01:46:43;8.30;99.90
21662;DHT22;10992;48.170;8.596;2024-02-16T01:49:10;8.30;99.90
21662;DHT22;10992;48.170;8.596;2024-02-16T01:51:38;8.30;99.90
21662;DHT22;10992;48.170;8.596;2024-02-16T01:54:05;8.30;99.90
21662;DHT22;10992;48.170;8.596;2024-02-16T01:56:32;8.30;99.90
21662;DHT22;10992;48.170;8.596;2024-02-16T01:59:00;8.30;99.90
21662;DHT22;10992;48.170;8.596;2024-02-16T02:01:26;8.20;99.90
21662;DHT22;10992;48.170;8.596;2024-02-16T02:03:53;8.20;99.90
21662;DHT22;10992;48.170;8.596;2024-02-16T02:06:20;8.20;99.90
21662;DHT22;10992;48.170;8.596;2024-02-16T02:08:48;8.20;99.90
21662;DHT22;10992;48.170;8.596;2024-02-16T02:11:15;8.10;99.90
21662;DHT22;10992;48.170;8.596;2024-02-16T02:13:42;8.10;99.90
21662;DHT22;10992;48.170;8.596;2024-02-16T02:16:10;8.10;99.90
21662;DHT22;10992;48.170;8.596;2024-02-16T02:18:37;8.10;99.90
21662;DHT22;10992;48.170;8.596;2024-02-16T02:21:04;8.00;99.90
21662;DHT22;10992;48.170;8.596;2024-02-16T02:23:31;8.00;99.90
21662;DHT22;10992;48.170;8.596;2024-02-16T02:25:58;8.10;99.90
21662;DHT22;10992;48.170;8.596;2024-02-16T02:28:25;8.10;99.90
21662;DHT22;10992;48.170;8.596;2024-02-16T02:30:52;8.10;99.90
21662;DHT22;10992;48.170;8.596;2024-02-16T02:33:20;8.10;99.90
21662;DHT22;10992;48.170;8.596;2024-02-16T02:35:47;8.00;99.90
21662;DHT22;10992;48.170;8.596;2024-02-16T02:38:14;8.00;99.90
21662;DHT22;10992;48.170;8.596;2024-02-16T02:40:41;8.00;99.90
21662;DHT22;10992;48.170;8.596;2024-02-16T02:43:08;7.90;99.90
21662;DHT22;10992;48.170;8.596;2024-02-16T02:45:35;7.80;99.90
21662;DHT22;10992;48.170;8.596;2024-02-16T02:48:02;7.70;99.90
21662;DHT22;10992;48.170;8.596;2024-02-16T02:50:29;7.60;99.90
21662;DHT22;10992;48.170;8.596;2024-02-16T02:52:57;7.70;99.90
21662;DHT22;10992;48.170;8.596;2024-02-16T02:55:24;7.60;99.90
21662;DHT22;10992;48.170;8.596;2024-02-16T02:57:51;7.50;99.90
21662;DHT22;10992;48.170;8.596;2024-02-16T03:00:18;7.50;99.90
21662;DHT22;10992;48.170;8.596;2024-02-16T03:02:46;7.50;99.90
21662;DHT22;10992;48.170;8.596;2024-02-16T03:05:14;7.50;99.90
21662;DHT22;10992;48.170;8.596;2024-02-16T03:07:41;7.50;99.90
21662;DHT22;10992;48.170;8.596;2024-02-16T03:10:08;7.50;99.90
21662;DHT22;10992;48.170;8.596;2024-02-16T03:12:36;7.50;99.90
21662;DHT22;10992;48.170;8.596;2024-02-16T03:15:03;7.50;99.90
21662;DHT22;10992;48.170;8.596;2024-02-16T03:17:30;7.40;99.90
21662;DHT22;10992;48.170;8.596;2024-02-16T03:19:57;7.50;99.90
21662;DHT22;10992;48.170;8.596;2024-02-16T03:22:24;7.50;99.90
21662;DHT22;10992;48.170;8.596;2024-02-16T03:24:51;7.50;99.90
21662;DHT22;10992;48.170;8.596;2024-02-16T03:27:18;7.50;99.90
21662;DHT22;10992;48.170;8.596;2024-02-16T03:29:45;7.60;99.90
21662;DHT22;10992;48.170;8.596;2024-02-16T03:32:12;7.60;99.90
21662;DHT22;10992;48.170;8.596;2024-02-16T03:34:39;7.60;99.90
21662;DHT22;10992;48.170;8.596;2024-02-16T03:37:07;7.70;99.90
21662;DHT22;10992;48.170;8.596;2024-02-16T03:39:35;7.70;99.90
21662;DHT22;10992;48.170;8.596;2024-02-16T03:42:02;7.70;99.90
21662;DHT22;10992;48.170;8.596;2024-02-16T03:44:29;7.80;99.90
21662;DHT22;10992;48.170;8.596;2024-02-16T03:46:56;7.80;99.90
21662;DHT22;10992;48.170;8.596;2024-02-16T03:49:24;7.80;99.90
21662;DHT22;10992;48.170;8.596;2024-02-16T03:51:52;7.80;99.90
21662;DHT22;10992;48.170;8.596;2024-02-16T03:54:19;7.80;99.90
21662;DHT22;10992;48.170;8.596;2024-02-16T03:56:46;7.90;99.90
21662;DHT22;10992;48.170;8.596;2024-02-16T03:59:15;7.90;99.90
21662;DHT22;10992;48.170;8.596;2024-02-16T04:01:42;7.90;99.90
21662;DHT22;10992;48.170;8.596;2024-02-16T04:04:09;7.90;99.90
21662;DHT22;10992;48.170;8.596;2024-02-16T04:06:36;7.90;99.90
21662;DHT22;10992;48.170;8.596;2024-02-16T04:09:03;8.00;99.90
21662;DHT22;10992;48.170;8.596;2024-02-16T04:11:32;8.00;99.90
21662;DHT22;10992;48.170;8.596;2024-02-16T04:13:59;8.00;99.90
21662;DHT22;10992;48.170;8.596;2024-02-16T04:16:27;8.00;99.90
21662;DHT22;10992;48.170;8.596;2024-02-16T04:18:54;7.90;99.90
21662;DHT22;10992;48.170;8.596;2024-02-16T04:21:22;7.90;99.90
21662;DHT22;10992;48.170;8.596;2024-02-16T04:23:49;7.90;99.90
21662;DHT22;10992;48.170;8.596;2024-02-16T04:26:16;7.90;99.90
21662;DHT22;10992;48.170;8.596;2024-02-16T04:28:42;7.90;99.90
21662;DHT22;10992;48.170;8.596;2024-02-16T04:31:09;7.90;99.90
21662;DHT22;10992;48.170;8.596;2024-02-16T04:33:36;7.90;99.90
21662;DHT22;10992;48.170;8.596;2024-02-16T04:36:06;7.90;99.90
21662;DHT22;10992;48.170;8.596;2024-02-16T04:38:34;7.80;99.90
21662;DHT22;10992;48.170;8.596;2024-02-16T04:41:01;7.80;99.90
21662;DHT22;10992;48.170;8.596;2024-02-16T04:43:28;7.70;99.90
21662;DHT22;10992;48.170;8.596;2024-02-16T04:45:55;7.70;99.90
21662;DHT22;10992;48.170;8.596;2024-02-16T04:48:21;7.60;99.90
21662;DHT22;10992;48.170;8.596;2024-02-16T04:50:48;7.60;99.90
21662;DHT22;10992;48.170;8.596;2024-02-16T04:53:15;7.60;99.90
21662;DHT22;10992;48.170;8.596;2024-02-16T04:55:42;7.50;99.90
21662;DHT22;10992;48.170;8.596;2024-02-16T04:58:09;7.50;99.90
21662;DHT22;10992;48.170;8.596;2024-02-16T05:00:39;7.60;99.90
21662;DHT22;10992;48.170;8.596;2024-02-16T05:03:07;7.60;99.90
21662;DHT22;10992;48.170;8.596;2024-02-16T05:05:34;7.60;99.90
21662;DHT22;10992;48.170;8.596;2024-02-16T05:08:01;7.70;99.90
21662;DHT22;10992;48.170;8.596;2024-02-16T05:10:28;7.60;99.90
21662;DHT22;10992;48.170;8.596;2024-02-16T05:12:55;7.60;99.90
21662;DHT22;10992;48.170;8.596;2024-02-16T05:15:24;7.60;99.90
21662;DHT22;10992;48.170;8.596;2024-02-16T05:17:51;7.50;99.90
21662;DHT22;10992;48.170;8.596;2024-02-16T05:20:18;7.40;99.90
21662;DHT22;10992;48.170;8.596;2024-02-16T05:22:47;7.40;99.90
21662;DHT22;10992;48.170;8.596;2024-02-16T05:25:14;7.40;99.90
21662;DHT22;10992;48.170;8.596;2024-02-16T05:27:41;7.50;99.90
21662;DHT22;10992;48.170;8.596;2024-02-16T05:30:12;7.50;99.90
21662;DHT22;10992;48.170;8.596;2024-02-16T05:32:43;7.50;99.90
21662;DHT22;10992;48.170;8.596;2024-02-16T05:35:11;7.50;99.90
21662;DHT22;10992;48.170;8.596;2024-02-16T05:37:43;7.50;99.90
21662;DHT22;10992;48.170;8.596;2024-02-16T05:40:11;7.50;99.90
21662;DHT22;10992;48.170;8.596;2024-02-16T05:42:56;7.50;99.90
21662;DHT22;10992;48.170;8.596;2024-02-16T05:45:26;7.50;99.90
21662;DHT22;10992;48.170;8.596;2024-02-16T05:47:53;7.50;99.90
21662;DHT22;10992;48.170;8.596;2024-02-16T05:50:21;7.60;99.90
21662;DHT22;10992;48.170;8.596;2024-02-16T05:52:49;7.70;99.90
21662;DHT22;10992;48.170;8.596;2024-02-16T05:55:18;7.80;99.90
21662;DHT22;10992;48.170;8.596;2024-02-16T05:57:47;7.90;99.90
21662;DHT22;10992;48.170;8.596;2024-02-16T06:00:14;8.00;99.90
21662;DHT22;10992;48.170;8.596;2024-02-16T06:02:42;8.00;99.90
21662;DHT22;10992;48.170;8.596;2024-02-16T06:05:09;8.10;99.90
21662;DHT22;10992;48.170;8.596;2024-02-16T06:07:37;8.00;99.90
21662;DHT22;10992;48.170;8.596;2024-02-16T06:10:05;8.00;99.90
21662;DHT22;10992;48.170;8.596;2024-02-16T06:12:36;8.00;99.90
21662;DHT22;10992;48.170;8.596;2024-02-16T06:15:05;8.00;99.90
21662;DHT22;10992;48.170;8.596;2024-02-16T06:17:32;7.90;99.90
21662;DHT22;10992;48.170;8.596;2024-02-16T06:19:59;7.80;99.90
21662;DHT22;10992;48.170;8.596;2024-02-16T06:22:27;7.90;99.90
21662;DHT22;10992;48.170;8.596;2024-02-16T06:24:54;7.90;99.90
21662;DHT22;10992;48.170;8.596;2024-02-16T06:27:21;7.80;99.90
21662;DHT22;10992;48.170;8.596;2024-02-16T06:29:48;7.80;99.90
21662;DHT22;10992;48.170;8.596;2024-02-16T06:32:14;7.80;99.90
21662;DHT22;10992;48.170;8.596;2024-02-16T06:34:44;7.70;99.90
21662;DHT22;10992;48.170;8.596;2024-02-16T06:37:12;7.70;99.90
21662;DHT22;10992;48.170;8.596;2024-02-16T06:39:39;7.70;99.90
21662;DHT22;10992;48.170;8.596;2024-02-16T06:42:06;7.70;99.90
21662;DHT22;10992;48.170;8.596;2024-02-16T06:44:33;7.70;99.90
21662;DHT22;10992;48.170;8.596;2024-02-16T06:47:00;7.80;99.90
21662;DHT22;10992;48.170;8.596;2024-02-16T06:49:27;7.90;99.90
21662;DHT22;10992;48.170;8.596;2024-02-16T06:51:54;8.10;99.90
21662;DHT22;10992;48.170;8.596;2024-02-16T06:54:22;8.20;99.90
21662;DHT22;10992;48.170;8.596;2024-02-16T06:56:49;8.20;99.90
21662;DHT22;10992;48.170;8.596;2024-02-16T06:59:18;8.30;99.90
21662;DHT22;10992;48.170;8.596;2024-02-16T07:01:45;8.30;99.90
21662;DHT22;10992;48.170;8.596;2024-02-16T07:04:12;8.20;99.90
21662;DHT22;10992;48.170;8.596;2024-02-16T07:06:39;8.10;99.90
21662;DHT22;10992;48.170;8.596;2024-02-16T07:09:06;8.00;99.90
21662;DHT22;10992;48.170;8.596;2024-02-16T07:11:33;7.90;99.90
21662;DHT22;10992;48.170;8.596;2024-02-16T07:14:01;7.90;99.90
21662;DHT22;10992;48.170;8.596;2024-02-16T07:16:29;7.90;99.90
21662;DHT22;10992;48.170;8.596;2024-02-16T07:18:56;7.90;99.90
21662;DHT22;10992;48.170;8.596;2024-02-16T07:21:23;7.90;99.90
21662;DHT22;10992;48.170;8.596;2024-02-16T07:23:53;8.00;99.90
21662;DHT22;10992;48.170;8.596;2024-02-16T07:26:20;8.00;99.90
21662;DHT22;10992;48.170;8.596;2024-02-16T07:28:46;8.00;99.90
21662;DHT22;10992;48.170;8.596;2024-02-16T07:31:13;8.10;99.90
21662;DHT22;10992;48.170;8.596;2024-02-16T07:33:43;8.20;99.90
21662;DHT22;10992;48.170;8.596;2024-02-16T07:36:10;8.20;99.90
21662;DHT22;10992;48.170;8.596;2024-02-16T07:38:37;8.20;99.90
21662;DHT22;10992;48.170;8.596;2024-02-16T07:41:04;8.30;99.90
21662;DHT22;10992;48.170;8.596;2024-02-16T07:43:35;8.30;99.90
21662;DHT22;10992;48.170;8.596;2024-02-16T07:46:02;8.30;99.90
21662;DHT22;10992;48.170;8.596;2024-02-16T07:48:30;8.30;99.90
21662;DHT22;10992;48.170;8.596;2024-02-16T07:50:57;8.30;99.90
21662;DHT22;10992;48.170;8.596;2024-02-16T07:53:29;8.30;99.90
21662;DHT22;10992;48.170;8.596;2024-02-16T07:55:56;8.30;99.90
21662;DHT22;10992;48.170;8.596;2024-02-16T07:58:25;8.30;99.90
21662;DHT22;10992;48.170;8.596;2024-02-16T08:00:51;8.30;99.90
21662;DHT22;10992;48.170;8.596;2024-02-16T08:03:21;8.40;99.90
21662;DHT22;10992;48.170;8.596;2024-02-16T08:05:48;8.40;99.90
21662;DHT22;10992;48.170;8.596;2024-02-16T08:08:17;8.50;99.90
21662;DHT22;10992;48.170;8.596;2024-02-16T08:10:43;8.50;99.90
21662;DHT22;10992;48.170;8.596;2024-02-16T08:13:12;8.50;99.90
21662;DHT22;10992;48.170;8.596;2024-02-16T08:15:39;8.50;99.90
21662;DHT22;10992;48.170;8.596;2024-02-16T08:18:06;8.50;99.90
21662;DHT22;10992;48.170;8.596;2024-02-16T08:20:33;8.60;99.90
21662;DHT22;10992;48.170;8.596;2024-02-16T08:22:59;8.60;99.90
21662;DHT22;10992;48.170;8.596;2024-02-16T08:25:26;8.70;99.90
21662;DHT22;10992;48.170;8.596;2024-02-16T08:27:54;8.80;99.90
21662;DHT22;10992;48.170;8.596;2024-02-16T08:30:20;9.00;99.90
21662;DHT22;10992;48.170;8.596;2024-02-16T08:32:47;9.20;99.90
21662;DHT22;10992;48.170;8.596;2024-02-16T08:35:14;9.50;99.90
21662;DHT22;10992;48.170;8.596;2024-02-16T08:37:43;9.90;99.90
21662;DHT22;10992;48.170;8.596;2024-02-16T08:40:13;10.40;99.90
21662;DHT22;10992;48.170;8.596;2024-02-16T08:42:42;10.80;99.90
21662;DHT22;10992;48.170;8.596;2024-02-16T08:45:09;11.20;99.90
21662;DHT22;10992;48.170;8.596;2024-02-16T08:47:37;11.90;99.90
21662;DHT22;10992;48.170;8.596;2024-02-16T08:50:05;12.20;99.90
21662;DHT22;10992;48.170;8.596;2024-02-16T08:52:33;12.60;99.90
21662;DHT22;10992;48.170;8.596;2024-02-16T08:55:00;12.60;99.90
21662;DHT22;10992;48.170;8.596;2024-02-16T08:57:27;13.20;99.90
21662;DHT22;10992;48.170;8.596;2024-02-16T08:59:54;13.60;99.90
21662;DHT22;10992;48.170;8.596;2024-02-16T09:02:22;13.70;99.90
21662;DHT22;10992;48.170;8.596;2024-02-16T09:04:49;13.30;99.90
21662;DHT22;10992;48.170;8.596;2024-02-16T09:07:17;13.20;99.90
21662;DHT22;10992;48.170;8.596;2024-02-16T09:09:44;12.70;99.90
21662;DHT22;10992;48.170;8.596;2024-02-16T09:12:11;12.60;99.90
21662;DHT22;10992;48.170;8.596;2024-02-16T09:14:38;12.60;99.90
21662;DHT22;10992;48.170;8.596;2024-02-16T09:17:05;12.70;99.90
21662;DHT22;10992;48.170;8.596;2024-02-16T09:19:32;12.60;99.90
21662;DHT22;10992;48.170;8.596;2024-02-16T09:21:59;12.80;99.90
21662;DHT22;10992;48.170;8.596;2024-02-16T09:24:28;12.80;99.90
21662;DHT22;10992;48.170;8.596;2024-02-16T09:26:57;12.70;99.90
21662;DHT22;10992;48.170;8.596;2024-02-16T09:29:24;12.80;99.90
21662;DHT22;10992;48.170;8.596;2024-02-16T09:31:51;13.00;99.90
21662;DHT22;10992;48.170;8.596;2024-02-16T09:34:19;13.20;99.90
21662;DHT22;10992;48.170;8.596;2024-02-16T09:36:46;13.30;99.90
21662;DHT22;10992;48.170;8.596;2024-02-16T09:39:13;13.30;99.90
21662;DHT22;10992;48.170;8.596;2024-02-16T09:41:42;13.30;99.90
21662;DHT22;10992;48.170;8.596;2024-02-16T09:44:09;13.90;99.90
21662;DHT22;10992;48.170;8.596;2024-02-16T09:46:37;13.90;99.90
21662;DHT22;10992;48.170;8.596;2024-02-16T09:49:04;14.30;99.90
21662;DHT22;10992;48.170;8.596;2024-02-16T09:51:36;14.20;99.90
21662;DHT22;10992;48.170;8.596;2024-02-16T09:54:03;14.00;99.90
21662;DHT22;10992;48.170;8.596;2024-02-16T09:56:30;14.00;99.90
21662;DHT22;10992;48.170;8.596;2024-02-16T09:58:57;13.80;99.90
21662;DHT22;10992;48.170;8.596;2024-02-16T10:01:30;13.80;99.90
21662;DHT22;10992;48.170;8.596;2024-02-16T10:04:07;13.70;99.90
21662;DHT22;10992;48.170;8.596;2024-02-16T10:06:46;13.70;99.90
21662;DHT22;10992;48.170;8.596;2024-02-16T10:09:25;13.80;99.90
21662;DHT22;10992;48.170;8.596;2024-02-16T10:11:52;13.70;99.90
21662;DHT22;10992;48.170;8.596;2024-02-16T10:14:19;13.70;99.90
21662;DHT22;10992;48.170;8.596;2024-02-16T10:16:59;13.80;99.90
21662;DHT22;10992;48.170;8.596;2024-02-16T10:19:27;14.10;99.90
21662;DHT22;10992;48.170;8.596;2024-02-16T10:21:54;14.10;99.90
21662;DHT22;10992;48.170;8.596;2024-02-16T10:24:31;14.30;99.90
21662;DHT22;10992;48.170;8.596;2024-02-16T10:26:58;14.80;99.90
21662;DHT22;10992;48.170;8.596;2024-02-16T10:29:27;15.20;99.90
21662;DHT22;10992;48.170;8.596;2024-02-16T10:31:54;15.20;99.90
21662;DHT22;10992;48.170;8.596;2024-02-16T10:34:24;15.40;99.90
21662;DHT22;10992;48.170;8.596;2024-02-16T10:36:53;16.00;99.90
21662;DHT22;10992;48.170;8.596;2024-02-16T10:39:20;16.30;99.90
21662;DHT22;10992;48.170;8.596;2024-02-16T10:41:48;16.50;99.90
21662;DHT22;10992;48.170;8.596;2024-02-16T10:44:16;16.50;99.90
21662;DHT22;10992;48.170;8.596;2024-02-16T10:46:43;16.20;99.90
21662;DHT22;10992;48.170;8.596;2024-02-16T10:49:10;16.40;99.90
21662;DHT22;10992;48.170;8.596;2024-02-16T10:51:56;16.30;99.90
21662;DHT22;10992;48.170;8.596;2024-02-16T10:54:29;16.20;99.90
21662;DHT22;10992;48.170;8.596;2024-02-16T10:56:58;15.90;99.90
21662;DHT22;10992;48.170;8.596;2024-02-16T10:59:25;15.40;99.90
21662;DHT22;10992;48.170;8.596;2024-02-16T11:02:00;15.60;99.90
21662;DHT22;10992;48.170;8.596;2024-02-16T11:04:36;16.00;99.90
21662;DHT22;10992;48.170;8.596;2024-02-16T11:07:15;16.60;99.90
21662;DHT22;10992;48.170;8.596;2024-02-16T11:09:43;17.30;99.90
21662;DHT22;10992;48.170;8.596;2024-02-16T11:12:12;17.40;99.90
21662;DHT22;10992;48.170;8.596;2024-02-16T11:14:41;18.30;99.90
21662;DHT22;10992;48.170;8.596;2024-02-16T11:19:44;20.30;99.90
21662;DHT22;10992;48.170;8.596;2024-02-16T11:22:16;21.20;99.90
21662;DHT22;10992;48.170;8.596;2024-02-16T11:24:48;22.50;99.90
21662;DHT22;10992;48.170;8.596;2024-02-16T11:27:17;20.70;99.90
21662;DHT22;10992;48.170;8.596;2024-02-16T11:29:48;20.00;99.90
21662;DHT22;10992;48.170;8.596;2024-02-16T11:32:17;20.20;99.90
21662;DHT22;10992;48.170;8.596;2024-02-16T11:34:44;20.40;99.90
21662;DHT22;10992;48.170;8.596;2024-02-16T11:37:12;20.50;99.90
21662;DHT22;10992;48.170;8.596;2024-02-16T11:39:39;20.80;99.90
21662;DHT22;10992;48.170;8.596;2024-02-16T11:42:12;19.40;99.90
21662;DHT22;10992;48.170;8.596;2024-02-16T11:44:49;19.20;99.90
21662;DHT22;10992;48.170;8.596;2024-02-16T11:47:20;19.60;99.90
21662;DHT22;10992;48.170;8.596;2024-02-16T11:50:08;18.40;99.90
21662;DHT22;10992;48.170;8.596;2024-02-16T11:52:39;19.10;99.90
21662;DHT22;10992;48.170;8.596;2024-02-16T11:55:10;19.50;99.90
21662;DHT22;10992;48.170;8.596;2024-02-16T11:57:39;19.50;99.90
21662;DHT22;10992;48.170;8.596;2024-02-16T12:00:07;19.40;99.90
21662;DHT22;10992;48.170;8.596;2024-02-16T12:02:36;19.10;99.90
21662;DHT22;10992;48.170;8.596;2024-02-16T12:05:03;18.40;99.90
21662;DHT22;10992;48.170;8.596;2024-02-16T12:07:31;18.40;99.90
21662;DHT22;10992;48.170;8.596;2024-02-16T12:10:02;18.20;99.90
21662;DHT22;10992;48.170;8.596;2024-02-16T12:12:32;18.30;99.90
21662;DHT22;10992;48.170;8.596;2024-02-16T12:15:00;18.40;99.90
21662;DHT22;10992;48.170;8.596;2024-02-16T12:17:27;18.10;99.90
21662;DHT22;10992;48.170;8.596;2024-02-16T12:19:54;18.20;99.90
21662;DHT22;10992;48.170;8.596;2024-02-16T12:22:21;18.10;99.90
21662;DHT22;10992;48.170;8.596;2024-02-16T12:24:50;18.50;99.90
21662;DHT22;10992;48.170;8.596;2024-02-16T12:27:17;18.10;99.90
21662;DHT22;10992;48.170;8.596;2024-02-16T12:29:45;18.00;99.90
21662;DHT22;10992;48.170;8.596;2024-02-16T12:32:13;17.80;99.90
21662;DHT22;10992;48.170;8.596;2024-02-16T12:34:44;17.40;99.90
21662;DHT22;10992;48.170;8.596;2024-02-16T12:37:12;17.10;99.90
21662;DHT22;10992;48.170;8.596;2024-02-16T12:39:38;17.30;99.90
21662;DHT22;10992;48.170;8.596;2024-02-16T12:42:07;17.40;99.90
21662;DHT22;10992;48.170;8.596;2024-02-16T12:44:34;17.20;99.90
21662;DHT22;10992;48.170;8.596;2024-02-16T12:47:01;17.20;99.90
21662;DHT22;10992;48.170;8.596;2024-02-16T12:49:28;17.20;99.90
21662;DHT22;10992;48.170;8.596;2024-02-16T12:51:54;17.10;99.90
21662;DHT22;10992;48.170;8.596;2024-02-16T12:54:21;17.10;99.90
21662;DHT22;10992;48.170;8.596;2024-02-16T12:56:49;17.00;99.90
21662;DHT22;10992;48.170;8.596;2024-02-16T12:59:17;17.10;99.90
21662;DHT22;10992;48.170;8.596;2024-02-16T13:01:44;16.80;99.90
21662;DHT22;10992;48.170;8.596;2024-02-16T13:04:11;16.70;99.90
21662;DHT22;10992;48.170;8.596;2024-02-16T13:06:39;16.70;99.90
21662;DHT22;10992;48.170;8.596;2024-02-16T13:09:06;16.60;99.90
21662;DHT22;10992;48.170;8.596;2024-02-16T13:11:35;16.60;99.90
21662;DHT22;10992;48.170;8.596;2024-02-16T13:14:02;16.20;99.90
21662;DHT22;10992;48.170;8.596;2024-02-16T13:16:29;16.30;99.90
21662;DHT22;10992;48.170;8.596;2024-02-16T13:18:55;16.20;99.90
21662;DHT22;10992;48.170;8.596;2024-02-16T13:21:22;16.20;99.90
21662;DHT22;10992;48.170;8.596;2024-02-16T13:23:49;16.30;99.90
21662;DHT22;10992;48.170;8.596;2024-02-16T13:26:16;16.30;99.90
21662;DHT22;10992;48.170;8.596;2024-02-16T13:28:43;16.20;99.90
21662;DHT22;10992;48.170;8.596;2024-02-16T13:31:10;16.30;99.90
21662;DHT22;10992;48.170;8.596;2024-02-16T13:33:38;16.40;99.90
21662;DHT22;10992;48.170;8.596;2024-02-16T13:36:05;16.70;99.90
21662;DHT22;10992;48.170;8.596;2024-02-16T13:38:32;16.40;99.90
21662;DHT22;10992;48.170;8.596;2024-02-16T13:40:59;16.40;99.90
21662;DHT22;10992;48.170;8.596;2024-02-16T13:43:28;16.30;99.90
21662;DHT22;10992;48.170;8.596;2024-02-16T13:45:56;16.10;99.90
21662;DHT22;10992;48.170;8.596;2024-02-16T13:48:25;16.00;99.90
21662;DHT22;10992;48.170;8.596;2024-02-16T13:50:54;16.20;99.90
21662;DHT22;10992;48.170;8.596;2024-02-16T13:53:22;16.10;99.90
21662;DHT22;10992;48.170;8.596;2024-02-16T13:55:49;16.10;99.90
21662;DHT22;10992;48.170;8.596;2024-02-16T13:58:16;16.00;99.90
21662;DHT22;10992;48.170;8.596;2024-02-16T14:00:43;16.00;99.90
21662;DHT22;10992;48.170;8.596;2024-02-16T14:03:14;16.00;99.90
21662;DHT22;10992;48.170;8.596;2024-02-16T14:05:41;15.90;99.90
21662;DHT22;10992;48.170;8.596;2024-02-16T14:08:11;15.50;99.90
21662;DHT22;10992;48.170;8.596;2024-02-16T14:10:39;15.60;99.90
21662;DHT22;10992;48.170;8.596;2024-02-16T14:13:06;15.40;99.90
21662;DHT22;10992;48.170;8.596;2024-02-16T14:15:33;15.20;99.90
21662;DHT22;10992;48.170;8.596;2024-02-16T14:18:00;15.20;99.90
21662;DHT22;10992;48.170;8.596;2024-02-16T14:20:37;15.00;99.90
21662;DHT22;10992;48.170;8.596;2024-02-16T14:23:04;15.00;99.90
21662;DHT22;10992;48.170;8.596;2024-02-16T14:25:34;14.90;99.90
21662;DHT22;10992;48.170;8.596;2024-02-16T14:28:04;14.90;99.90
21662;DHT22;10992;48.170;8.596;2024-02-16T14:30:31;14.70;99.90
21662;DHT22;10992;48.170;8.596;2024-02-16T14:33:00;14.40;99.90
21662;DHT22;10992;48.170;8.596;2024-02-16T14:35:27;14.30;99.90
21662;DHT22;10992;48.170;8.596;2024-02-16T14:37:54;14.30;99.90
21662;DHT22;10992;48.170;8.596;2024-02-16T14:40:20;14.20;99.90
21662;DHT22;10992;48.170;8.596;2024-02-16T14:42:47;14.20;99.90
21662;DHT22;10992;48.170;8.596;2024-02-16T14:45:15;14.30;99.90
21662;DHT22;10992;48.170;8.596;2024-02-16T14:47:48;14.40;99.90
21662;DHT22;10992;48.170;8.596;2024-02-16T14:50:16;14.40;99.90
21662;DHT22;10992;48.170;8.596;2024-02-16T14:52:43;14.40;99.90
21662;DHT22;10992;48.170;8.596;2024-02-16T14:55:12;14.50;99.90
21662;DHT22;10992;48.170;8.596;2024-02-16T14:57:44;14.60;99.90
21662;DHT22;10992;48.170;8.596;2024-02-16T15:00:12;14.70;99.90
21662;DHT22;10992;48.170;8.596;2024-02-16T15:02:39;14.70;99.90
21662;DHT22;10992;48.170;8.596;2024-02-16T15:05:09;14.70;99.90
21662;DHT22;10992;48.170;8.596;2024-02-16T15:07:36;14.70;99.90
21662;DHT22;10992;48.170;8.596;2024-02-16T15:10:04;14.70;99.90
21662;DHT22;10992;48.170;8.596;2024-02-16T15:12:31;14.60;99.90
21662;DHT22;10992;48.170;8.596;2024-02-16T15:14:59;14.50;99.90
21662;DHT22;10992;48.170;8.596;2024-02-16T15:17:27;14.40;99.90
21662;DHT22;10992;48.170;8.596;2024-02-16T15:19:54;14.20;99.90
21662;DHT22;10992;48.170;8.596;2024-02-16T15:22:22;13.80;99.90
21662;DHT22;10992;48.170;8.596;2024-02-16T15:24:51;13.70;99.90
21662;DHT22;10992;48.170;8.596;2024-02-16T15:27:18;13.50;99.90
21662;DHT22;10992;48.170;8.596;2024-02-16T15:29:45;13.40;99.90
21662;DHT22;10992;48.170;8.596;2024-02-16T15:32:12;13.40;99.90
21662;DHT22;10992;48.170;8.596;2024-02-16T15:34:38;13.30;99.90
21662;DHT22;10992;48.170;8.596;2024-02-16T15:37:10;13.20;99.90
21662;DHT22;10992;48.170;8.596;2024-02-16T15:39:37;13.10;99.90
21662;DHT22;10992;48.170;8.596;2024-02-16T15:42:04;13.10;99.90
21662;DHT22;10992;48.170;8.596;2024-02-16T15:44:31;13.20;99.90
21662;DHT22;10992;48.170;8.596;2024-02-16T15:46:58;13.20;99.90